createdAt,value
2023-05-09T00:00:11.984Z,36.74
2023-05-09T00:01:11.995Z,38.35
2023-05-09T00:02:12.018Z,37.06
2023-05-09T00:03:12.007Z,36.74
2023-05-09T00:04:11.979Z,36.25
2023-05-09T00:05:12.175Z,37.06
2023-05-09T00:06:11.904Z,36.58
2023-05-09T00:07:11.900Z,38.67
2023-05-09T00:08:11.886Z,36.74
2023-05-09T00:09:11.858Z,37.06
2023-05-09T00:10:11.893Z,36.74
2023-05-09T00:11:11.860Z,36.25
2023-05-09T00:12:11.822Z,36.25
2023-05-09T00:13:11.823Z,36.58
2023-05-09T00:14:11.806Z,37.87
2023-05-09T00:15:12.030Z,39.64
2023-05-09T00:16:11.782Z,37.71
2023-05-09T00:17:11.743Z,37.38
2023-05-09T00:18:11.737Z,36.74
2023-05-09T00:19:11.746Z,38.03
2023-05-09T00:20:11.753Z,38.83
2023-05-09T00:21:11.696Z,38.19
2023-05-09T00:22:11.682Z,35.77
2023-05-09T00:23:11.664Z,35.93
2023-05-09T00:24:11.703Z,36.58
2023-05-09T00:25:11.809Z,35.77
2023-05-09T00:26:11.652Z,35.61
2023-05-09T00:27:11.632Z,36.25
2023-05-09T00:28:11.609Z,36.58
2023-05-09T00:29:11.595Z,36.58
2023-05-09T00:30:11.584Z,37.54
2023-05-09T00:31:11.556Z,36.74
2023-05-09T00:32:11.611Z,37.22
2023-05-09T00:33:11.644Z,36.74
2023-05-09T00:34:11.520Z,38.35
2023-05-09T00:35:11.600Z,38.99
2023-05-09T00:36:11.490Z,38.03
2023-05-09T00:37:11.482Z,36.74
2023-05-09T00:38:11.489Z,37.87
2023-05-09T00:39:11.440Z,37.38
2023-05-09T00:40:11.477Z,35.77
2023-05-09T00:41:11.423Z,35.93
2023-05-09T00:42:11.433Z,37.54
2023-05-09T00:43:11.404Z,37.06
2023-05-09T00:44:11.385Z,38.03
2023-05-09T00:45:11.410Z,37.06
2023-05-09T00:46:11.374Z,37.22
2023-05-09T00:47:11.350Z,38.51
2023-05-09T00:48:11.322Z,37.06
2023-05-09T00:49:11.322Z,37.06
2023-05-09T00:50:11.299Z,36.90
2023-05-09T00:51:11.293Z,36.74
2023-05-09T00:52:11.290Z,37.71
2023-05-09T00:53:11.265Z,36.09
2023-05-09T00:54:11.254Z,36.09
2023-05-09T00:55:11.303Z,37.22
2023-05-09T00:56:11.278Z,35.93
2023-05-09T00:57:11.280Z,36.58
2023-05-09T00:58:11.224Z,36.90
2023-05-09T00:59:11.165Z,35.61
2023-05-09T01:00:11.164Z,35.77
2023-05-09T01:01:11.192Z,36.74
2023-05-09T01:02:11.247Z,37.71
2023-05-09T01:03:11.191Z,37.38
2023-05-09T01:04:11.110Z,36.25
2023-05-09T01:05:11.169Z,36.09
2023-05-09T01:06:11.093Z,36.25
2023-05-09T01:07:11.100Z,35.77
2023-05-09T01:08:11.066Z,36.42
2023-05-09T01:09:11.041Z,36.74
2023-05-09T01:10:11.034Z,37.06
2023-05-09T01:11:11.045Z,37.06
2023-05-09T01:12:11.012Z,36.58
2023-05-09T01:13:11.059Z,36.58
2023-05-09T01:14:10.992Z,36.74
2023-05-09T01:15:11.071Z,36.90
2023-05-09T01:16:11.038Z,35.77
2023-05-09T01:17:10.940Z,36.90
2023-05-09T01:18:10.949Z,40.61
2023-05-09T01:19:10.907Z,37.38
2023-05-09T01:20:10.931Z,35.77
2023-05-09T01:21:10.879Z,36.25
2023-05-09T01:22:10.872Z,37.54
2023-05-09T01:23:10.859Z,36.09
2023-05-09T01:24:10.863Z,36.09
2023-05-09T01:25:10.859Z,37.54
2023-05-09T01:26:10.994Z,35.93
2023-05-09T01:27:10.791Z,38.51
2023-05-09T01:28:10.799Z,36.58
2023-05-09T01:29:10.797Z,36.25
2023-05-09T01:30:10.772Z,36.42
2023-05-09T01:31:10.758Z,36.58
2023-05-09T01:32:10.730Z,36.25
2023-05-09T01:33:10.751Z,35.77
2023-05-09T01:34:10.732Z,35.45
2023-05-09T01:35:10.688Z,36.25
2023-05-09T01:36:10.676Z,36.58
2023-05-09T01:37:10.655Z,35.93
2023-05-09T01:38:10.665Z,35.77
2023-05-09T01:39:10.681Z,36.25
2023-05-09T01:40:10.652Z,35.93
2023-05-09T01:41:10.610Z,35.93
2023-05-09T01:42:10.592Z,35.45
2023-05-09T01:43:10.587Z,36.74
2023-05-09T01:44:10.640Z,39.32
2023-05-09T01:45:10.557Z,36.90
2023-05-09T01:46:10.575Z,36.74
2023-05-09T01:47:10.523Z,36.09
2023-05-09T01:48:10.549Z,35.77
2023-05-09T01:49:10.529Z,36.25
2023-05-09T01:50:10.502Z,37.87
2023-05-09T01:51:10.471Z,36.09
2023-05-09T01:52:10.487Z,36.09
2023-05-09T01:53:10.461Z,36.58
2023-05-09T01:54:10.445Z,35.29
2023-05-09T01:55:10.427Z,35.93
2023-05-09T01:56:10.422Z,35.93
2023-05-09T01:57:10.410Z,37.06
2023-05-09T01:58:10.388Z,36.74
2023-05-09T01:59:10.362Z,37.06
2023-05-09T02:00:10.360Z,35.77
2023-05-09T02:01:10.384Z,36.90
2023-05-09T02:02:10.434Z,36.58
2023-05-09T02:03:10.378Z,41.57
2023-05-09T02:04:10.293Z,35.77
2023-05-09T02:05:10.312Z,36.25
2023-05-09T02:06:10.271Z,36.90
2023-05-09T02:07:10.271Z,42.22
2023-05-09T02:08:10.257Z,36.58
2023-05-09T02:09:10.227Z,38.51
2023-05-09T02:10:10.240Z,35.93
2023-05-09T02:11:10.199Z,38.67
2023-05-09T02:12:10.220Z,35.93
2023-05-09T02:13:10.202Z,37.38
2023-05-09T02:14:10.174Z,37.22
2023-05-09T02:15:10.149Z,36.90
2023-05-09T02:16:10.195Z,39.80
2023-05-09T02:17:10.137Z,37.54
2023-05-09T02:18:10.123Z,36.09
2023-05-09T02:19:10.091Z,35.13
2023-05-09T02:20:10.089Z,36.25
2023-05-09T02:21:10.135Z,37.54
2023-05-09T02:22:10.066Z,36.09
2023-05-09T02:23:10.076Z,38.83
2023-05-09T02:24:10.042Z,39.96
2023-05-09T02:25:10.042Z,49.79
2023-05-09T02:26:10.126Z,36.90
2023-05-09T02:27:10.000Z,39.32
2023-05-09T02:28:09.997Z,45.92
2023-05-09T02:29:09.957Z,42.70
2023-05-09T02:30:10.004Z,39.48
2023-05-09T02:31:09.935Z,40.77
2023-05-09T02:32:10.026Z,45.28
2023-05-09T02:33:09.930Z,45.92
2023-05-09T02:34:09.910Z,46.25
2023-05-09T02:35:09.882Z,37.06
2023-05-09T02:36:09.874Z,50.11
2023-05-09T02:37:09.857Z,42.06
2023-05-09T02:38:09.837Z,36.74
2023-05-09T02:39:09.846Z,48.50
2023-05-09T02:40:09.813Z,38.67
2023-05-09T02:41:09.785Z,39.64
2023-05-09T02:42:09.778Z,41.89
2023-05-09T02:43:09.758Z,50.11
2023-05-09T02:44:09.788Z,51.40
2023-05-09T02:45:09.732Z,38.51
2023-05-09T02:46:09.772Z,49.95
2023-05-09T02:47:09.698Z,37.38
2023-05-09T02:48:09.776Z,48.18
2023-05-09T02:49:11.364Z,39.64
2023-05-09T02:50:10.700Z,48.66
2023-05-09T02:51:09.674Z,45.60
2023-05-09T02:52:09.652Z,44.63
2023-05-09T02:53:09.654Z,54.62
2023-05-09T02:54:09.614Z,39.48
2023-05-09T02:55:09.588Z,59.78
2023-05-09T02:56:09.597Z,37.22
2023-05-09T02:57:09.588Z,40.44
2023-05-09T02:58:13.501Z,49.31
2023-05-09T02:59:09.551Z,38.83
2023-05-09T03:00:09.556Z,49.95
2023-05-09T03:01:09.525Z,38.67
2023-05-09T03:02:09.540Z,41.73
2023-05-09T03:03:09.586Z,45.60
2023-05-09T03:04:09.485Z,58.65
2023-05-09T03:05:09.465Z,51.56
2023-05-09T03:06:09.458Z,56.56
2023-05-09T03:07:09.446Z,59.94
2023-05-09T03:08:09.436Z,40.44
2023-05-09T03:09:09.403Z,37.87
2023-05-09T03:10:09.398Z,41.09
2023-05-09T03:11:09.382Z,44.47
2023-05-09T03:12:09.403Z,60.26
2023-05-09T03:13:09.415Z,48.82
2023-05-09T03:14:09.351Z,42.38
2023-05-09T03:15:09.333Z,61.87
2023-05-09T03:16:09.345Z,49.95
2023-05-09T03:17:09.333Z,56.56
2023-05-09T03:18:09.311Z,42.54
2023-05-09T03:19:09.283Z,65.58
2023-05-09T03:20:09.251Z,58.01
2023-05-09T03:21:09.294Z,64.61
2023-05-09T03:22:09.253Z,57.85
2023-05-09T03:23:09.219Z,63.00
2023-05-09T03:24:09.212Z,49.63
2023-05-09T03:25:09.197Z,50.92
2023-05-09T03:26:09.198Z,47.53
2023-05-09T03:27:09.231Z,51.88
2023-05-09T03:28:09.150Z,49.95
2023-05-09T03:29:09.175Z,43.02
2023-05-09T03:30:09.141Z,41.73
2023-05-09T03:31:09.194Z,48.02
2023-05-09T03:32:09.098Z,58.17
2023-05-09T03:33:09.167Z,44.15
2023-05-09T03:34:09.075Z,55.75
2023-05-09T03:35:09.090Z,54.30
2023-05-09T03:36:09.030Z,42.06
2023-05-09T03:37:09.029Z,49.95
2023-05-09T03:38:09.035Z,50.43
2023-05-09T03:39:09.021Z,49.63
2023-05-09T03:40:09.028Z,46.89
2023-05-09T03:41:08.983Z,46.25
2023-05-09T03:42:08.957Z,50.43
2023-05-09T03:43:08.955Z,48.34
2023-05-09T03:44:08.952Z,52.37
2023-05-09T03:45:08.950Z,51.08
2023-05-09T03:46:08.907Z,43.02
2023-05-09T03:47:08.904Z,53.82
2023-05-09T03:48:08.899Z,48.02
2023-05-09T03:49:08.915Z,54.62
2023-05-09T03:50:08.865Z,52.53
2023-05-09T03:51:08.840Z,59.62
2023-05-09T03:52:08.822Z,49.95
2023-05-09T03:53:08.835Z,47.21
2023-05-09T03:54:08.815Z,48.66
2023-05-09T03:55:08.785Z,46.57
2023-05-09T03:56:08.762Z,52.05
2023-05-09T03:57:08.771Z,53.66
2023-05-09T03:58:08.765Z,49.63
2023-05-09T03:59:08.743Z,49.15
2023-05-09T04:00:08.710Z,42.06
2023-05-09T04:01:08.702Z,64.29
2023-05-09T04:02:08.724Z,48.02
2023-05-09T04:03:08.762Z,44.31
2023-05-09T04:04:08.736Z,58.65
2023-05-09T04:05:08.663Z,48.34
2023-05-09T04:06:08.633Z,44.63
2023-05-09T04:07:08.632Z,62.52
2023-05-09T04:08:08.631Z,54.46
2023-05-09T04:09:08.639Z,41.25
2023-05-09T04:10:08.604Z,45.12
2023-05-09T04:11:08.584Z,42.70
2023-05-09T04:12:08.574Z,48.34
2023-05-09T04:13:08.677Z,48.02
2023-05-09T04:14:08.508Z,54.95
2023-05-09T04:15:08.518Z,40.93
2023-05-09T04:16:08.504Z,58.49
2023-05-09T04:17:08.577Z,43.67
2023-05-09T04:18:08.522Z,43.34
2023-05-09T04:19:08.459Z,61.55
2023-05-09T04:20:08.428Z,58.49
2023-05-09T04:21:08.500Z,43.51
2023-05-09T04:22:08.425Z,49.47
2023-05-09T04:23:08.421Z,63.00
2023-05-09T04:24:08.401Z,41.25
2023-05-09T04:25:08.385Z,46.73
2023-05-09T04:26:08.380Z,40.93
2023-05-09T04:27:08.353Z,55.91
2023-05-09T04:28:08.361Z,45.60
2023-05-09T04:29:08.342Z,60.75
2023-05-09T04:30:08.319Z,63.49
2023-05-09T04:31:08.469Z,51.72
2023-05-09T04:32:08.305Z,41.57
2023-05-09T04:33:08.294Z,59.46
2023-05-09T04:34:08.276Z,55.43
2023-05-09T04:35:08.299Z,41.73
2023-05-09T04:36:08.255Z,66.87
2023-05-09T04:37:08.323Z,48.98
2023-05-09T04:38:08.196Z,46.08
2023-05-09T04:39:08.229Z,42.86
2023-05-09T04:40:08.181Z,42.06
2023-05-09T04:41:08.190Z,59.14
2023-05-09T04:42:08.164Z,59.62
2023-05-09T04:43:08.167Z,50.11
2023-05-09T04:44:08.112Z,42.86
2023-05-09T04:45:08.125Z,42.06
2023-05-09T04:46:08.169Z,47.86
2023-05-09T04:47:08.087Z,41.41
2023-05-09T04:48:08.101Z,45.92
2023-05-09T04:49:08.067Z,61.23
2023-05-09T04:50:08.051Z,47.05
2023-05-09T04:51:08.042Z,47.37
2023-05-09T04:52:08.000Z,45.44
2023-05-09T04:53:08.005Z,43.99
2023-05-09T04:54:08.018Z,56.56
2023-05-09T04:55:07.980Z,58.97
2023-05-09T04:56:07.980Z,66.06
2023-05-09T04:57:17.429Z,55.59
2023-05-09T04:58:08.933Z,60.59
2023-05-09T04:59:07.912Z,49.63
2023-05-09T05:00:07.934Z,60.59
2023-05-09T05:01:07.885Z,47.21
2023-05-09T05:02:07.926Z,55.91
2023-05-09T05:03:07.973Z,50.43
2023-05-09T05:04:07.865Z,56.07
2023-05-09T05:05:12.032Z,49.63
2023-05-09T05:06:07.827Z,44.96
2023-05-09T05:07:07.813Z,60.75
2023-05-09T05:08:07.808Z,61.39
2023-05-09T05:09:07.787Z,44.15
2023-05-09T05:10:07.769Z,55.59
2023-05-09T05:11:07.751Z,42.54
2023-05-09T05:12:09.556Z,48.34
2023-05-09T05:13:07.799Z,48.34
2023-05-09T05:14:07.712Z,53.82
2023-05-09T05:15:07.706Z,43.51
2023-05-09T05:16:07.717Z,48.66
2023-05-09T05:17:07.721Z,47.53
2023-05-09T05:18:07.710Z,73.96
2023-05-09T05:19:07.670Z,50.11
2023-05-09T05:20:07.628Z,60.59
2023-05-09T05:21:07.631Z,47.05
2023-05-09T05:22:07.633Z,57.69
2023-05-09T05:23:07.628Z,59.78
2023-05-09T05:24:07.642Z,53.66
2023-05-09T05:25:07.573Z,58.65
2023-05-09T05:26:07.549Z,47.86
2023-05-09T05:27:07.553Z,54.95
2023-05-09T05:28:07.529Z,53.50
2023-05-09T05:29:07.515Z,60.10
2023-05-09T05:30:07.506Z,58.81
2023-05-09T05:31:07.643Z,56.07
2023-05-09T05:32:07.484Z,63.65
2023-05-09T05:33:07.551Z,45.60
2023-05-09T05:34:07.445Z,57.52
2023-05-09T05:35:07.434Z,46.57
2023-05-09T05:36:07.422Z,44.96
2023-05-09T05:37:07.401Z,41.89
2023-05-09T05:38:07.384Z,42.70
2023-05-09T05:39:07.368Z,43.02
2023-05-09T05:40:07.360Z,57.52
2023-05-09T05:41:07.384Z,49.15
2023-05-09T05:42:07.536Z,51.72
2023-05-09T05:43:07.328Z,66.87
2023-05-09T05:44:07.307Z,48.34
2023-05-09T05:45:07.303Z,55.11
2023-05-09T05:46:07.334Z,50.11
2023-05-09T05:47:07.285Z,63.00
2023-05-09T05:48:07.282Z,48.66
2023-05-09T05:49:07.252Z,59.14
2023-05-09T05:50:07.219Z,44.47
2023-05-09T05:51:07.218Z,48.02
2023-05-09T05:52:07.194Z,59.94
2023-05-09T05:53:07.198Z,58.49
2023-05-09T05:54:07.180Z,55.75
2023-05-09T05:55:07.169Z,53.01
2023-05-09T05:56:07.139Z,50.60
2023-05-09T05:57:07.135Z,56.56
2023-05-09T05:58:07.129Z,50.11
2023-05-09T05:59:07.119Z,55.43
2023-05-09T06:00:07.335Z,54.30
2023-05-09T06:01:07.074Z,58.81
2023-05-09T06:02:07.070Z,60.42
2023-05-09T06:03:07.147Z,46.08
2023-05-09T06:04:07.098Z,51.08
2023-05-09T06:05:07.017Z,70.90
2023-05-09T06:06:07.007Z,49.95
2023-05-09T06:07:06.986Z,49.79
2023-05-09T06:08:07.037Z,48.98
2023-05-09T06:09:07.017Z,45.12
2023-05-09T06:10:06.961Z,45.60
2023-05-09T06:11:07.025Z,44.31
2023-05-09T06:12:06.913Z,48.02
2023-05-09T06:13:06.966Z,49.79
2023-05-09T06:14:06.910Z,52.21
2023-05-09T06:15:06.923Z,45.44
2023-05-09T06:16:18.725Z,53.17
2023-05-09T06:17:07.944Z,53.82
2023-05-09T06:18:06.869Z,51.56
2023-05-09T06:19:06.830Z,43.51
2023-05-09T06:20:06.806Z,42.06
2023-05-09T06:21:06.801Z,66.39
2023-05-09T06:22:06.773Z,51.40
2023-05-09T06:23:06.786Z,47.05
2023-05-09T06:24:14.245Z,46.57
2023-05-09T06:25:10.137Z,43.51
2023-05-09T06:26:06.731Z,43.51
2023-05-09T06:27:06.739Z,46.25
2023-05-09T06:28:06.715Z,43.99
2023-05-09T06:29:06.686Z,48.66
2023-05-09T06:30:23.829Z,52.21
2023-05-09T06:31:07.677Z,48.18
2023-05-09T06:32:06.666Z,43.67
2023-05-09T06:33:06.655Z,43.02
2023-05-09T06:34:06.636Z,55.43
2023-05-09T06:35:06.599Z,46.73
2023-05-09T06:36:06.589Z,48.34
2023-05-09T06:37:06.626Z,50.60
2023-05-09T06:38:06.569Z,62.20
2023-05-09T06:39:06.555Z,48.82
2023-05-09T06:40:06.539Z,43.67
2023-05-09T06:41:06.545Z,53.33
2023-05-09T06:42:06.532Z,43.67
2023-05-09T06:43:06.518Z,42.54
2023-05-09T06:44:06.488Z,60.26
2023-05-09T06:45:06.520Z,50.76
2023-05-09T06:46:06.520Z,47.86
2023-05-09T06:47:06.465Z,48.66
2023-05-09T06:48:06.500Z,45.44
2023-05-09T06:49:06.443Z,61.07
2023-05-09T06:50:06.417Z,46.57
2023-05-09T06:51:06.430Z,46.08
2023-05-09T06:52:06.421Z,44.96
2023-05-09T06:53:06.365Z,56.72
2023-05-09T06:54:06.348Z,48.66
2023-05-09T06:55:06.364Z,55.75
2023-05-09T06:56:06.343Z,56.07
2023-05-09T06:57:06.311Z,48.18
2023-05-09T06:58:06.309Z,58.17
2023-05-09T06:59:06.351Z,45.12
2023-05-09T07:00:06.295Z,48.50
2023-05-09T07:01:06.261Z,45.12
2023-05-09T07:02:06.337Z,45.60
2023-05-09T07:03:06.294Z,52.85
2023-05-09T07:04:06.250Z,46.57
2023-05-09T07:05:06.360Z,54.79
2023-05-09T07:06:06.194Z,54.79
2023-05-09T07:07:06.217Z,57.52
2023-05-09T07:08:06.202Z,61.55
2023-05-09T07:09:06.202Z,46.73
2023-05-09T07:10:11.398Z,48.82
2023-05-09T07:11:07.125Z,48.18
2023-05-09T07:12:06.107Z,59.94
2023-05-09T07:13:06.137Z,50.60
2023-05-09T07:14:06.101Z,48.02
2023-05-09T07:15:06.066Z,46.41
2023-05-09T07:16:06.171Z,47.53
2023-05-09T07:17:21.740Z,45.28
2023-05-09T07:18:07.090Z,56.88
2023-05-09T07:19:06.065Z,45.12
2023-05-09T07:20:06.010Z,50.11
2023-05-09T07:21:05.983Z,50.11
2023-05-09T07:22:05.998Z,44.79
2023-05-09T07:23:06.095Z,54.30
2023-05-09T07:24:05.965Z,46.25
2023-05-09T07:25:05.935Z,59.30
2023-05-09T07:26:05.909Z,47.53
2023-05-09T07:27:05.904Z,46.25
2023-05-09T07:28:05.883Z,45.12
2023-05-09T07:29:05.888Z,48.34
2023-05-09T07:30:05.863Z,48.34
2023-05-09T07:31:05.853Z,48.34
2023-05-09T07:32:05.866Z,44.79
2023-05-09T07:33:05.872Z,55.11
2023-05-09T07:34:05.809Z,44.31
2023-05-09T07:35:05.810Z,43.83
2023-05-09T07:36:05.779Z,49.31
2023-05-09T07:37:05.784Z,47.53
2023-05-09T07:38:05.772Z,44.15
2023-05-09T07:39:05.726Z,46.25
2023-05-09T07:40:05.737Z,50.76
2023-05-09T07:41:05.709Z,53.17
2023-05-09T07:42:05.728Z,56.56
2023-05-09T07:43:05.690Z,45.76
2023-05-09T07:44:05.671Z,48.66
2023-05-09T07:45:05.643Z,50.60
2023-05-09T07:46:05.687Z,54.95
2023-05-09T07:47:05.634Z,51.24
2023-05-09T07:48:05.670Z,50.27
2023-05-09T07:49:05.601Z,49.95
2023-05-09T07:50:05.577Z,55.11
2023-05-09T07:51:05.601Z,65.74
2023-05-09T07:52:05.583Z,57.36
2023-05-09T07:53:05.551Z,65.74
2023-05-09T07:54:05.538Z,64.45
2023-05-09T07:55:05.506Z,67.68
2023-05-09T07:56:05.509Z,67.03
2023-05-09T07:57:05.480Z,66.23
2023-05-09T07:58:05.470Z,65.26
2023-05-09T07:59:05.450Z,63.81
2023-05-09T08:00:05.437Z,70.90
2023-05-09T08:01:05.442Z,64.61
2023-05-09T08:02:05.501Z,74.12
2023-05-09T08:03:05.579Z,72.99
2023-05-09T08:04:05.455Z,72.19
2023-05-09T08:05:05.371Z,71.87
2023-05-09T08:06:05.394Z,69.13
2023-05-09T08:07:05.341Z,68.00
2023-05-09T08:08:05.349Z,66.87
2023-05-09T08:09:05.329Z,64.13
2023-05-09T08:10:05.333Z,64.45
2023-05-09T08:11:05.296Z,54.95
2023-05-09T08:12:05.293Z,44.15
2023-05-09T08:13:05.276Z,58.01
2023-05-09T08:14:05.256Z,56.88
2023-05-09T08:15:05.287Z,45.92
2023-05-09T08:16:05.262Z,43.67
2023-05-09T08:17:05.211Z,45.28
2023-05-09T08:18:05.242Z,50.76
2023-05-09T08:19:05.231Z,48.50
2023-05-09T08:20:05.195Z,47.53
2023-05-09T08:21:05.164Z,46.89
2023-05-09T08:22:05.161Z,46.41
2023-05-09T08:23:05.131Z,58.97
2023-05-09T08:24:05.161Z,47.05
2023-05-09T08:25:05.111Z,57.36
2023-05-09T08:26:05.092Z,62.68
2023-05-09T08:27:05.079Z,49.31
2023-05-09T08:28:05.061Z,45.60
2023-05-09T08:29:05.065Z,44.47
2023-05-09T08:30:05.215Z,47.53
2023-05-09T08:31:05.072Z,52.21
2023-05-09T08:32:05.021Z,47.05
2023-05-09T08:33:05.081Z,43.99
2023-05-09T08:34:05.014Z,45.60
2023-05-09T08:35:04.977Z,44.96
2023-05-09T08:36:04.965Z,58.01
2023-05-09T08:37:04.934Z,56.40
2023-05-09T08:38:04.957Z,54.62
2023-05-09T08:39:04.937Z,47.70
2023-05-09T08:40:04.924Z,50.43
2023-05-09T08:41:04.892Z,47.86
2023-05-09T08:42:04.910Z,45.60
2023-05-09T08:43:04.887Z,43.18
2023-05-09T08:44:04.899Z,59.14
2023-05-09T08:45:04.842Z,43.67
2023-05-09T08:46:04.851Z,42.54
2023-05-09T08:47:04.862Z,54.30
2023-05-09T08:48:04.849Z,46.57
2023-05-09T08:49:04.810Z,42.06
2023-05-09T08:50:04.775Z,52.85
2023-05-09T08:51:04.749Z,43.18
2023-05-09T08:52:04.771Z,53.98
2023-05-09T08:53:04.758Z,52.53
2023-05-09T08:54:04.720Z,43.18
2023-05-09T08:55:04.711Z,54.62
2023-05-09T08:56:04.708Z,53.33
2023-05-09T08:57:04.690Z,53.98
2023-05-09T08:58:04.667Z,50.92
2023-05-09T08:59:04.639Z,44.63
2023-05-09T09:00:04.650Z,56.07
2023-05-09T09:01:04.659Z,55.11
2023-05-09T09:02:04.713Z,68.80
2023-05-09T09:03:04.620Z,50.27
2023-05-09T09:04:04.583Z,56.40
2023-05-09T09:05:04.613Z,50.11
2023-05-09T09:06:04.591Z,46.73
2023-05-09T09:07:04.526Z,46.89
2023-05-09T09:08:04.549Z,52.21
2023-05-09T09:09:04.514Z,56.24
2023-05-09T09:10:04.534Z,50.11
2023-05-09T09:11:04.528Z,71.38
2023-05-09T09:12:04.477Z,50.11
2023-05-09T09:13:04.611Z,58.49
2023-05-09T09:14:04.452Z,57.04
2023-05-09T09:15:04.465Z,53.50
2023-05-09T09:16:04.455Z,44.63
2023-05-09T09:17:04.459Z,53.33
2023-05-09T09:18:06.038Z,43.83
2023-05-09T09:19:04.366Z,51.08
2023-05-09T09:20:04.360Z,58.65
2023-05-09T09:21:04.334Z,55.91
2023-05-09T09:22:04.368Z,56.56
2023-05-09T09:23:04.317Z,51.56
2023-05-09T09:24:04.320Z,47.37
2023-05-09T09:25:04.292Z,51.72
2023-05-09T09:26:04.298Z,57.20
2023-05-09T09:27:04.290Z,58.81
2023-05-09T09:28:04.268Z,53.66
2023-05-09T09:29:04.246Z,56.40
2023-05-09T09:30:04.233Z,48.34
2023-05-09T09:31:04.240Z,43.02
2023-05-09T09:32:04.232Z,42.86
2023-05-09T09:33:04.241Z,48.66
2023-05-09T09:34:04.188Z,63.81
2023-05-09T09:35:04.182Z,46.89
2023-05-09T09:36:04.165Z,43.83
2023-05-09T09:37:04.142Z,44.47
2023-05-09T09:38:04.125Z,53.50
2023-05-09T09:39:04.126Z,44.63
2023-05-09T09:40:04.093Z,55.75
2023-05-09T09:41:04.086Z,47.37
2023-05-09T09:42:04.068Z,57.20
2023-05-09T09:43:04.044Z,60.75
2023-05-09T09:44:04.059Z,60.91
2023-05-09T09:45:04.029Z,59.46
2023-05-09T09:46:04.081Z,64.78
2023-05-09T09:47:04.006Z,63.97
2023-05-09T09:48:04.086Z,64.78
2023-05-09T09:49:03.988Z,65.26
2023-05-09T09:50:03.966Z,65.42
2023-05-09T09:51:03.940Z,71.87
2023-05-09T09:52:03.943Z,64.13
2023-05-09T09:53:03.935Z,59.46
2023-05-09T09:54:03.913Z,60.75
2023-05-09T09:55:03.893Z,70.90
2023-05-09T09:56:03.877Z,55.11
2023-05-09T09:57:03.860Z,49.63
2023-05-09T09:58:03.858Z,53.33
2023-05-09T09:59:03.888Z,57.85
2023-05-09T10:00:03.820Z,55.11
2023-05-09T10:01:03.822Z,50.76
2023-05-09T10:02:07.006Z,51.24
2023-05-09T10:03:03.908Z,52.85
2023-05-09T10:04:03.830Z,45.92
2023-05-09T10:05:03.745Z,53.33
2023-05-09T10:06:03.746Z,57.69
2023-05-09T10:07:03.765Z,53.82
2023-05-09T10:08:03.745Z,61.23
2023-05-09T10:09:03.690Z,58.01
2023-05-09T10:10:03.682Z,54.14
2023-05-09T10:11:03.666Z,49.15
2023-05-09T10:12:03.663Z,50.27
2023-05-09T10:13:03.699Z,55.43
2023-05-09T10:14:03.635Z,54.14
2023-05-09T10:15:03.623Z,58.17
2023-05-09T10:16:03.678Z,47.86
2023-05-09T10:17:03.742Z,61.23
2023-05-09T10:18:03.707Z,46.25
2023-05-09T10:19:03.625Z,64.29
2023-05-09T10:20:03.555Z,54.62
2023-05-09T10:21:03.609Z,50.43
2023-05-09T10:22:03.532Z,55.11
2023-05-09T10:23:03.516Z,47.70
2023-05-09T10:24:03.493Z,55.43
2023-05-09T10:25:03.562Z,64.29
2023-05-09T10:26:03.506Z,48.18
2023-05-09T10:27:03.481Z,55.43
2023-05-09T10:28:03.439Z,58.01
2023-05-09T10:29:03.420Z,45.12
2023-05-09T10:30:03.445Z,47.53
2023-05-09T10:31:03.506Z,48.50
2023-05-09T10:32:03.412Z,46.08
2023-05-09T10:33:03.442Z,52.69
2023-05-09T10:34:03.364Z,44.63
2023-05-09T10:35:03.354Z,47.37
2023-05-09T10:36:03.327Z,59.46
2023-05-09T10:37:03.305Z,58.65
2023-05-09T10:38:03.304Z,54.46
2023-05-09T10:39:03.297Z,64.78
2023-05-09T10:40:03.302Z,58.33
2023-05-09T10:41:03.253Z,61.71
2023-05-09T10:42:03.248Z,55.11
2023-05-09T10:43:03.229Z,58.81
2023-05-09T10:44:03.261Z,61.23
2023-05-09T10:45:03.206Z,64.94
2023-05-09T10:46:03.258Z,61.07
2023-05-09T10:47:03.208Z,60.59
2023-05-09T10:48:03.268Z,55.11
2023-05-09T10:49:03.214Z,56.72
2023-05-09T10:50:03.145Z,55.43
2023-05-09T10:51:03.135Z,66.55
2023-05-09T10:52:03.129Z,61.39
2023-05-09T10:53:03.153Z,58.81
2023-05-09T10:54:03.133Z,66.06
2023-05-09T10:55:03.094Z,57.52
2023-05-09T10:56:03.063Z,60.10
2023-05-09T10:57:03.035Z,55.91
2023-05-09T10:58:03.033Z,60.59
2023-05-09T10:59:03.022Z,70.58
2023-05-09T11:00:03.033Z,49.79
2023-05-09T11:01:02.985Z,67.35
2023-05-09T11:02:03.024Z,52.85
2023-05-09T11:03:03.050Z,55.59
2023-05-09T11:04:03.019Z,64.94
2023-05-09T11:05:02.925Z,48.18
2023-05-09T11:06:02.921Z,56.88
2023-05-09T11:07:02.935Z,59.62
2023-05-09T11:08:02.960Z,56.24
2023-05-09T11:09:02.881Z,53.98
2023-05-09T11:10:02.884Z,55.75
2023-05-09T11:11:02.859Z,57.20
2023-05-09T11:12:02.850Z,58.17
2023-05-09T11:13:02.844Z,60.26
2023-05-09T11:14:02.825Z,50.92
2023-05-09T11:15:02.788Z,61.07
2023-05-09T11:16:02.847Z,60.59
2023-05-09T11:17:02.796Z,60.59
2023-05-09T11:18:02.845Z,51.72
2023-05-09T11:19:02.740Z,62.52
2023-05-09T11:20:02.744Z,60.26
2023-05-09T11:21:02.767Z,49.63
2023-05-09T11:22:02.733Z,53.17
2023-05-09T11:23:02.694Z,53.98
2023-05-09T11:24:02.688Z,52.53
2023-05-09T11:25:02.684Z,47.70
2023-05-09T11:26:02.686Z,56.56
2023-05-09T11:27:02.637Z,69.45
2023-05-09T11:28:02.765Z,48.50
2023-05-09T11:29:02.625Z,54.30
2023-05-09T11:30:02.610Z,59.78
2023-05-09T11:31:02.636Z,58.01
2023-05-09T11:32:02.637Z,49.63
2023-05-09T11:33:02.609Z,46.73
2023-05-09T11:34:02.564Z,51.08
2023-05-09T11:35:02.561Z,49.31
2023-05-09T11:36:02.550Z,60.91
2023-05-09T11:37:02.515Z,58.17
2023-05-09T11:38:02.537Z,53.50
2023-05-09T11:39:02.482Z,50.11
2023-05-09T11:40:02.498Z,55.11
2023-05-09T11:41:02.473Z,60.59
2023-05-09T11:42:02.462Z,53.01
2023-05-09T11:43:02.450Z,63.97
2023-05-09T11:44:02.418Z,58.17
2023-05-09T11:45:02.443Z,49.79
2023-05-09T11:46:02.442Z,63.81
2023-05-09T11:47:02.389Z,56.24
2023-05-09T11:48:02.410Z,55.11
2023-05-09T11:49:02.417Z,51.08
2023-05-09T11:50:02.353Z,53.33
2023-05-09T11:51:02.337Z,59.78
2023-05-09T11:52:02.309Z,63.81
2023-05-09T11:53:02.317Z,55.11
2023-05-09T11:54:02.339Z,53.17
2023-05-09T11:55:02.320Z,58.17
2023-05-09T11:56:02.260Z,58.01
2023-05-09T11:57:02.258Z,61.23
2023-05-09T11:58:02.226Z,57.04
2023-05-09T11:59:02.266Z,63.00
2023-05-09T12:00:02.226Z,55.59
2023-05-09T12:01:02.207Z,54.30
2023-05-09T12:02:02.214Z,56.07
2023-05-09T12:03:02.334Z,51.56
2023-05-09T12:04:02.251Z,55.11
2023-05-09T12:05:02.151Z,57.85
2023-05-09T12:06:02.131Z,58.49
2023-05-09T12:07:02.125Z,52.05
2023-05-09T12:08:02.118Z,58.65
2023-05-09T12:09:02.086Z,52.69
2023-05-09T12:10:02.076Z,61.55
2023-05-09T12:11:02.063Z,56.88
2023-05-09T12:12:02.051Z,51.88
2023-05-09T12:13:02.135Z,49.63
2023-05-09T12:14:02.022Z,51.88
2023-05-09T12:15:02.011Z,46.25
2023-05-09T12:16:02.045Z,56.24
2023-05-09T12:17:02.011Z,54.14
2023-05-09T12:18:02.071Z,58.97
2023-05-09T12:19:01.967Z,56.88
2023-05-09T12:20:01.951Z,55.75
2023-05-09T12:21:01.943Z,64.13
2023-05-09T12:22:01.931Z,61.07
2023-05-09T12:23:01.916Z,56.88
2023-05-09T12:24:01.881Z,56.56
2023-05-09T12:25:01.876Z,59.62
2023-05-09T12:26:01.874Z,56.07
2023-05-09T12:27:01.876Z,56.24
2023-05-09T12:28:01.828Z,61.07
2023-05-09T12:29:01.821Z,68.00
2023-05-09T12:30:01.840Z,58.49
2023-05-09T12:31:01.872Z,54.62
2023-05-09T12:32:01.815Z,56.56
2023-05-09T12:33:01.806Z,59.78
2023-05-09T12:34:01.746Z,55.75
2023-05-09T12:35:01.736Z,73.64
2023-05-09T12:36:01.733Z,55.43
2023-05-09T12:37:01.709Z,56.56
2023-05-09T12:38:01.696Z,59.14
2023-05-09T12:39:01.716Z,57.20
2023-05-09T12:40:01.668Z,56.40
2023-05-09T12:41:03.654Z,64.78
2023-05-09T12:42:02.308Z,51.72
2023-05-09T12:43:01.641Z,50.11
2023-05-09T12:44:01.620Z,58.81
2023-05-09T12:45:01.622Z,59.94
2023-05-09T12:46:01.613Z,52.85
2023-05-09T12:47:01.614Z,55.43
2023-05-09T12:48:01.645Z,50.76
2023-05-09T12:49:01.554Z,54.79
2023-05-09T12:50:01.579Z,55.91
2023-05-09T12:51:01.535Z,63.97
2023-05-09T12:52:04.452Z,54.30